Time;durP1;ratioP1;P1;durP2;ratioP2;P2;SDS_P1;SDS_P2;PMS_P1;PMS_P2;Temp;Humidity;BMP_temperature;BMP_pressure;BME280_temperature;BME280_humidity;BME280_pressure;Samples;Min_cycle;Max_cycle;Signal;HPM_P1;HPM_P2
2022/08/11 00:01:50;;;;;;;;;;;;;;;19.36;100.00;102475.13;5094311;28;19920;-32
2022/08/11 00:04:19;;;;;;;;;;;;;;;19.36;100.00;102477.13;5093796;28;20331;-37
2022/08/11 00:06:47;;;;;;;;;;;;;;;19.34;100.00;102485.09;5093208;28;19977;-32
2022/08/11 00:09:19;;;;;;;;;;;;;;;19.32;100.00;102481.72;5093940;28;19924;-42
2022/08/11 00:11:47;;;;;;;;;;;;;;;19.30;100.00;102472.72;5093913;28;19923;-36
2022/08/11 00:14:16;;;;;;;;;;;;;;;19.27;100.00;102477.84;5092843;28;19927;-32
2022/08/11 00:16:53;;;;;;;;;;;;;;;19.26;100.00;102489.50;5093849;28;20027;-32
2022/08/11 00:19:23;;;;;;;;;;;;;;;19.22;100.00;102479.97;5093564;28;19927;-33
2022/08/11 00:22:11;;;;;;;;;;;;;;;19.21;100.00;102483.94;5088486;28;19924;-35
2022/08/11 00:24:40;;;;;;;;;;;;;;;19.17;100.00;102480.94;5093519;28;19924;-32
2022/08/11 00:27:31;;;;;;;;;;;;;;;19.16;100.00;102478.44;5093842;28;19920;-35
2022/08/11 00:29:58;;;;;;;;;;;;;;;19.14;100.00;102480.75;5093396;28;19924;-36
2022/08/11 00:32:28;;;;;;;;;;;;;;;19.11;100.00;102473.72;5093721;28;19927;-33
2022/08/11 00:34:56;;;;;;;;;;;;;;;19.07;100.00;102475.50;5092760;28;19920;-32
2022/08/11 00:37:47;;;;;;;;;;;;;;;19.06;100.00;102471.00;5093804;28;19973;-35
2022/08/11 00:40:18;;;;;;;;;;;;;;;19.03;100.00;102474.44;5091832;28;19920;-40
2022/08/11 00:42:53;;;;;;;;;;;;;;;19.01;100.00;102476.75;5092736;28;19920;-40
2022/08/11 00:45:23;;;;;;;;;;;;;;;18.98;100.00;102473.75;5093350;28;19927;-32
2022/08/11 00:48:01;;;;;;;;;;;;;;;18.97;100.00;102470.09;5057384;28;1047707;-33
2022/08/11 00:50:34;;;;;;;;;;;;;;;18.93;100.00;102466.22;5093325;28;20403;-39
2022/08/11 00:53:17;;;;;;;;;;;;;;;18.89;100.00;102468.81;5093999;28;19927;-35
2022/08/11 00:56:03;;;;;;;;;;;;;;;18.87;100.00;102473.13;5091779;28;20011;-37
2022/08/11 00:58:49;;;;;;;;;;;;;;;18.84;100.00;102471.75;5094205;28;19920;-32
2022/08/11 01:01:26;;;;;;;;;;;;;;;18.81;100.00;102478.03;5093661;28;19935;-36
2022/08/11 01:04:11;;;;;;;;;;;;;;;18.78;100.00;102473.03;5093406;28;20377;-37
2022/08/11 01:06:48;;;;;;;;;;;;;;;18.76;100.00;102478.19;5093881;28;19920;-32
2022/08/11 01:09:33;;;;;;;;;;;;;;;18.74;100.00;102477.66;5093968;28;19931;-37
2022/08/11 01:12:19;;;;;;;;;;;;;;;18.73;100.00;102475.13;5089959;28;19924;-34
2022/08/11 01:15:16;;;;;;;;;;;;;;;18.71;100.00;102475.44;5060808;28;19920;-34
2022/08/11 01:17:59;;;;;;;;;;;;;;;18.68;100.00;102478.91;5092004;28;19920;-34
2022/08/11 01:20:45;;;;;;;;;;;;;;;18.66;100.00;102472.72;5060284;28;19920;-36
2022/08/11 01:23:35;;;;;;;;;;;;;;;18.64;100.00;102472.19;5093447;28;19920;-32
2022/08/11 01:26:35;;;;;;;;;;;;;;;18.62;100.00;102471.66;5092582;28;20285;-32
2022/08/11 01:29:20;;;;;;;;;;;;;;;18.58;100.00;102471.41;5085866;28;19920;-37
2022/08/11 01:32:05;;;;;;;;;;;;;;;18.57;100.00;102466.13;5092557;28;19924;-33
2022/08/11 01:34:51;;;;;;;;;;;;;;;18.53;100.00;102465.06;5086421;28;19927;-39
2022/08/11 01:37:38;;;;;;;;;;;;;;;18.51;100.00;102467.34;5093281;28;19920;-32
2022/08/11 01:40:22;;;;;;;;;;;;;;;18.48;100.00;102467.97;5092803;28;20661;-38
2022/08/11 01:45:57;;;;;;;;;;;;;;;18.45;100.00;102463.78;5072290;28;19920;-33
2022/08/11 01:48:33;;;;;;;;;;;;;;;18.43;100.00;102468.91;5091300;28;19920;-32
2022/08/11 01:51:05;;;;;;;;;;;;;;;18.40;100.00;102463.03;5093213;28;19919;-32
2022/08/11 01:53:44;;;;;;;;;;;;;;;18.38;100.00;102456.91;5092256;28;19924;-34
2022/08/11 01:56:16;;;;;;;;;;;;;;;18.36;100.00;102454.38;5093454;28;19920;-33
2022/08/11 01:58:48;;;;;;;;;;;;;;;18.35;100.00;102463.16;5092885;28;19920;-41
2022/08/11 02:01:27;;;;;;;;;;;;;;;18.34;100.00;102469.97;5092468;28;19919;-34
2022/08/11 02:03:58;;;;;;;;;;;;;;;18.31;100.00;102465.78;5092581;28;20377;-35
2022/08/11 02:09:20;;;;;;;;;;;;;;;18.28;100.00;102462.72;5092747;28;20391;-39
2022/08/11 02:11:50;;;;;;;;;;;;;;;18.28;100.00;102460.75;5092890;28;19920;-37
2022/08/11 02:14:24;;;;;;;;;;;;;;;18.27;100.00;102466.72;5091912;28;19927;-33
2022/08/11 02:16:58;;;;;;;;;;;;;;;18.24;100.00;102452.06;5092941;28;20376;-33
2022/08/11 02:25:18;;;;;;;;;;;;;;;18.20;100.00;102447.31;5089629;28;19920;-33
2022/08/11 02:27:53;;;;;;;;;;;;;;;18.19;100.00;102454.97;5091995;28;19920;-35
2022/08/11 02:30:24;;;;;;;;;;;;;;;18.16;100.00;102444.31;5089610;28;19924;-35
2022/08/11 02:35:46;;;;;;;;;;;;;;;18.15;100.00;102436.16;5081495;28;19920;-36
2022/08/11 02:38:17;;;;;;;;;;;;;;;18.13;100.00;102442.09;5090440;28;19924;-33
2022/08/11 02:40:49;;;;;;;;;;;;;;;18.13;100.00;102442.09;5090651;28;19927;-32
2022/08/11 02:43:29;;;;;;;;;;;;;;;18.10;100.00;102439.91;5090087;28;19927;-33
2022/08/11 02:46:06;;;;;;;;;;;;;;;18.09;100.00;102432.56;5088598;28;19919;-40
2022/08/11 02:51:41;;;;;;;;;;;;;;;18.09;100.00;102438.22;5081386;28;19928;-34
2022/08/11 02:54:12;;;;;;;;;;;;;;;18.08;100.00;102436.56;5091919;28;19942;-31
2022/08/11 02:56:44;;;;;;;;;;;;;;;18.07;100.00;102439.69;5081298;28;19927;-33
2022/08/11 03:02:06;;;;;;;;;;;;;;;18.06;100.00;102432.34;5082683;28;19928;-35
2022/08/11 03:04:38;;;;;;;;;;;;;;;18.05;100.00;102434.34;5091411;28;20003;-37
2022/08/11 03:07:08;;;;;;;;;;;;;;;18.05;100.00;102441.97;5092441;28;19920;-34
2022/08/11 03:10:03;;;;;;;;;;;;;;;18.04;100.00;102435.50;5091177;28;19951;-33
2022/08/11 03:18:15;;;;;;;;;;;;;;;17.98;100.00;102431.09;5091565;28;19927;-32
2022/08/11 03:20:45;;;;;;;;;;;;;;;17.98;100.00;102428.28;5091574;28;19926;-32
2022/08/11 03:23:17;;;;;;;;;;;;;;;17.98;100.00;102424.63;5091011;28;19920;-33
2022/08/11 03:25:50;;;;;;;;;;;;;;;17.98;100.00;102431.09;5090857;28;19920;-33
2022/08/11 03:28:27;;;;;;;;;;;;;;;17.99;100.00;102427.09;5092053;28;20026;-32
2022/08/11 03:31:01;;;;;;;;;;;;;;;17.98;100.00;102421.78;5090997;28;19928;-34
2022/08/11 03:36:22;;;;;;;;;;;;;;;17.97;100.00;102426.59;5091882;28;19924;-33
2022/08/11 03:39:01;;;;;;;;;;;;;;;17.97;100.00;102432.25;5091329;28;19924;-32
2022/08/11 03:41:43;;;;;;;;;;;;;;;17.96;100.00;102426.91;5091732;28;19927;-33
2022/08/11 03:44:50;;;;;;;;;;;;;;;17.94;100.00;102421.56;5071675;28;19920;-34
2022/08/11 03:47:22;;;;;;;;;;;;;;;17.95;100.00;102428.06;5090155;28;20403;-37
2022/08/11 03:50:13;;;;;;;;;;;;;;;17.93;100.00;102428.38;5095741;28;20288;-33
2022/08/11 03:52:58;;;;;;;;;;;;;;;17.95;100.00;102430.88;5094637;28;20288;-33
2022/08/11 03:55:31;;;;;;;;;;;;;;;17.96;100.00;102439.06;5095090;28;19920;-32
2022/08/11 03:58:20;;;;;;;;;;;;;;;17.97;100.00;102435.06;5095015;28;19920;-36
2022/08/11 04:01:02;;;;;;;;;;;;;;;17.98;100.00;102430.28;5094517;28;20388;-33
2022/08/11 04:03:48;;;;;;;;;;;;;;;17.97;100.00;102435.06;5092653;28;19920;-35
2022/08/11 04:06:37;;;;;;;;;;;;;;;17.95;100.00;102440.19;5094068;28;19920;-38
2022/08/11 04:09:23;;;;;;;;;;;;;;;17.95;100.00;102426.06;5084724;28;20403;-38
2022/08/11 04:12:14;;;;;;;;;;;;;;;17.95;100.00;102426.06;5094716;28;19923;-34
2022/08/11 04:18:22;;;;;;;;;;;;;;;17.97;100.00;102420.97;5094420;28;19920;-33
2022/08/11 04:20:59;;;;;;;;;;;;;;;17.96;100.00;102424.09;5084648;28;19919;-38
2022/08/11 04:23:45;;;;;;;;;;;;;;;17.96;100.00;102424.94;5094487;28;19951;-32
2022/08/11 04:26:52;;;;;;;;;;;;;;;17.94;100.00;102427.22;5094658;28;20381;-37
2022/08/11 04:29:29;;;;;;;;;;;;;;;17.93;100.00;102419.91;5095188;28;19947;-34
2022/08/11 04:32:11;;;;;;;;;;;;;;;17.94;100.00;102424.41;5094739;28;19989;-32
2022/08/11 04:34:49;;;;;;;;;;;;;;;17.95;100.00;102428.91;5093903;28;19928;-34
2022/08/11 04:37:34;;;;;;;;;;;;;;;17.96;100.00;102418.44;5094523;28;19928;-37
2022/08/11 04:40:26;;;;;;;;;;;;;;;17.94;100.00;102415.94;5075986;28;19920;-38
2022/08/11 04:43:21;;;;;;;;;;;;;;;17.94;100.00;102418.75;5093613;28;19920;-34
2022/08/11 04:46:09;;;;;;;;;;;;;;;17.94;100.00;102420.72;5094455;28;19920;-32
2022/08/11 05:03:40;;;;;;;;;;;;;;;18.01;100.00;102419.16;5072426;28;19923;-40
2022/08/11 05:06:26;;;;;;;;;;;;;;;18.03;100.00;102425.34;5085389;28;19943;-39
2022/08/11 05:09:08;;;;;;;;;;;;;;;18.05;100.00;102427.84;5093083;28;19959;-36
2022/08/11 05:11:45;;;;;;;;;;;;;;;18.06;100.00;102424.72;5093877;28;19920;-39
2022/08/11 05:34:52;;;;;;;;;;;;;;;18.37;100.00;102439.09;5091993;28;19920;-38
2022/08/11 05:37:22;;;;;;;;;;;;;;;18.41;100.00;102434.47;5091696;28;19919;-34
2022/08/11 05:56:57;;;;;;;;;;;;;;;18.78;100.00;102436.28;5091454;28;19947;-35
2022/08/11 05:59:27;;;;;;;;;;;;;;;18.83;100.00;102441.81;5091325;28;19931;-36
2022/08/11 06:01:59;;;;;;;;;;;;;;;18.88;100.00;102438.88;5091507;28;19930;-40
2022/08/11 06:04:28;;;;;;;;;;;;;;;18.94;100.00;102439.59;5091837;28;20395;-39
2022/08/11 06:06:57;;;;;;;;;;;;;;;18.99;100.00;102433.81;5090688;28;20033;-40
2022/08/11 06:09:27;;;;;;;;;;;;;;;19.05;100.00;102440.19;5091716;28;19927;-34
2022/08/11 06:11:56;;;;;;;;;;;;;;;19.10;100.00;102434.41;5089531;28;20400;-38
2022/08/11 06:14:24;;;;;;;;;;;;;;;19.14;100.00;102433.47;5090779;28;19947;-31
2022/08/11 06:16:57;;;;;;;;;;;;;;;19.20;100.00;102432.16;5091701;28;19920;-32
2022/08/11 06:19:32;;;;;;;;;;;;;;;19.28;100.00;102430.56;5090929;28;19931;-33
2022/08/11 06:22:01;;;;;;;;;;;;;;;19.36;100.00;102427.00;5089229;28;19924;-33
2022/08/11 06:24:31;;;;;;;;;;;;;;;19.43;100.00;102423.69;5091526;28;19963;-36
2022/08/11 06:26:59;;;;;;;;;;;;;;;19.50;100.00;102433.47;5090180;28;20063;-37
2022/08/11 06:29:47;;;;;;;;;;;;;;;19.57;100.00;102422.53;5091466;28;20000;-39
2022/08/11 06:32:26;;;;;;;;;;;;;;;19.71;100.00;102424.44;5091225;28;19926;-35
2022/08/11 06:35:10;;;;;;;;;;;;;;;19.90;100.00;102422.22;5090864;28;19997;-39
2022/08/11 06:37:45;;;;;;;;;;;;;;;20.29;100.00;102429.91;5091266;28;19926;-34
2022/08/11 06:40:23;;;;;;;;;;;;;;;20.75;100.00;102422.94;5090987;28;19926;-33
2022/08/11 06:42:54;;;;;;;;;;;;;;;21.28;100.00;102434.03;5090919;28;20285;-32
2022/08/11 06:45:30;;;;;;;;;;;;;;;21.82;100.00;102428.78;5091315;28;20340;-33
2022/08/11 06:48:01;;;;;;;;;;;;;;;22.40;100.00;102433.81;5090241;28;19931;-41
2022/08/11 06:53:17;;;;;;;;;;;;;;;23.75;100.00;102427.03;5091312;28;19928;-34
2022/08/11 07:01:22;;;;;;;;;;;;;;;25.72;100.00;102434.81;5072179;28;19938;-34
2022/08/11 07:03:57;;;;;;;;;;;;;;;26.29;100.00;102424.97;5089955;28;19967;-34
2022/08/11 07:06:31;;;;;;;;;;;;;;;26.79;95.49;102426.19;5091707;28;19924;-33
2022/08/11 07:30:11;;;;;;;;;;;;;;;30.80;61.56;102426.94;5094209;28;19934;-34
2022/08/11 07:32:51;;;;;;;;;;;;;;;31.01;59.66;102429.13;5095048;28;19927;-35
2022/08/11 07:35:21;;;;;;;;;;;;;;;31.30;57.87;102430.16;5094697;28;19924;-37
2022/08/11 07:37:53;;;;;;;;;;;;;;;31.54;53.34;102428.63;5094260;28;19920;-38
2022/08/11 07:40:29;;;;;;;;;;;;;;;31.77;56.24;102429.16;5094611;28;19920;-41
2022/08/11 07:42:58;;;;;;;;;;;;;;;32.15;53.99;102430.47;5095177;28;19920;-40
2022/08/11 07:53:45;;;;;;;;;;;;;;;33.40;49.39;102421.72;5095206;28;20284;-40
2022/08/11 07:56:33;;;;;;;;;;;;;;;33.69;48.49;102423.25;5083971;28;20373;-39
2022/08/11 08:19:02;;;;;;;;;;;;;;;35.61;41.31;102412.00;5094450;28;20360;-34
2022/08/11 08:21:31;;;;;;;;;;;;;;;35.76;40.46;102414.31;5094505;28;19927;-40
2022/08/11 08:23:58;;;;;;;;;;;;;;;35.98;40.48;102423.53;5094731;28;19927;-36
2022/08/11 08:32:04;;;;;;;;;;;;;;;36.74;38.83;102421.91;5094231;28;19927;-39
2022/08/11 08:34:32;;;;;;;;;;;;;;;36.89;38.76;102414.56;5093841;28;19919;-41
2022/08/11 08:37:00;;;;;;;;;;;;;;;37.09;37.59;102413.75;5094150;28;19920;-41
2022/08/11 08:39:32;;;;;;;;;;;;;;;37.18;36.81;102411.91;5094447;28;19927;-41
2022/08/11 08:42:04;;;;;;;;;;;;;;;37.35;37.22;102414.91;5093539;28;20324;-41
2022/08/11 08:44:33;;;;;;;;;;;;;;;37.50;36.69;102407.50;5074169;28;19928;-41
2022/08/11 08:47:09;;;;;;;;;;;;;;;37.57;35.60;102410.28;5089736;28;20391;-43
2022/08/11 08:49:40;;;;;;;;;;;;;;;37.58;35.38;102411.88;5094432;28;20365;-43
2022/08/11 08:52:14;;;;;;;;;;;;;;;37.67;36.13;102409.22;5094151;28;19943;-39
2022/08/11 08:55:02;;;;;;;;;;;;;;;37.77;33.34;102413.19;5073333;28;19927;-44
2022/08/11 08:57:32;;;;;;;;;;;;;;;37.76;34.78;102415.28;5090487;28;20016;-43
2022/08/11 09:00:07;;;;;;;;;;;;;;;37.80;35.16;102406.44;5073830;28;20084;-42
2022/08/11 09:02:36;;;;;;;;;;;;;;;37.80;33.24;102404.34;5089113;28;20272;-39
2022/08/11 09:05:04;;;;;;;;;;;;;;;37.83;35.21;102399.69;5093879;28;19920;-38
2022/08/11 09:07:32;;;;;;;;;;;;;;;37.80;33.56;102401.41;5092372;28;20250;-43
2022/08/11 09:10:07;;;;;;;;;;;;;;;37.81;35.29;102397.25;5092977;28;19924;-42
2022/08/11 09:12:38;;;;;;;;;;;;;;;38.05;35.04;102394.19;5093322;28;20377;-44
2022/08/11 09:15:08;;;;;;;;;;;;;;;37.96;34.44;102385.25;5093256;28;19928;-42
2022/08/11 09:17:39;;;;;;;;;;;;;;;38.02;34.98;102389.25;5093540;28;19927;-42
2022/08/11 09:20:08;;;;;;;;;;;;;;;38.23;33.67;102392.50;5093637;28;20377;-38
2022/08/11 09:28:30;;;;;;;;;;;;;;;38.62;33.61;102389.84;5093307;28;20270;-40
2022/08/11 09:31:00;;;;;;;;;;;;;;;38.66;33.08;102399.34;5092869;28;19927;-38
2022/08/11 09:33:28;;;;;;;;;;;;;;;38.69;32.44;102398.44;5093104;28;20423;-41
2022/08/11 09:35:57;;;;;;;;;;;;;;;38.72;32.70;102386.66;5093355;28;19967;-39
2022/08/11 09:41:16;;;;;;;;;;;;;;;38.92;32.89;102395.28;5093523;28;19924;-42
2022/08/11 09:46:39;;;;;;;;;;;;;;;39.11;32.22;102396.44;5072509;28;19921;-43
2022/08/11 09:49:06;;;;;;;;;;;;;;;39.11;32.19;102393.50;5088691;28;19928;-37
2022/08/11 09:51:34;;;;;;;;;;;;;;;39.14;30.98;102393.41;5092854;28;20288;-38
2022/08/11 09:54:05;;;;;;;;;;;;;;;39.12;31.82;102389.31;5092803;28;19920;-40
2022/08/11 09:59:21;;;;;;;;;;;;;;;39.41;30.95;102398.03;5091714;28;19923;-43
2022/08/11 10:01:50;;;;;;;;;;;;;;;39.36;31.61;102399.44;5093508;28;19927;-42
2022/08/11 10:04:19;;;;;;;;;;;;;;;39.43;30.04;102395.47;5091850;28;19920;-41
2022/08/11 10:07:00;;;;;;;;;;;;;;;39.47;30.81;102396.22;5092716;28;20423;-42
2022/08/11 10:09:35;;;;;;;;;;;;;;;39.37;30.35;102392.28;5092719;28;19973;-39
2022/08/11 10:12:03;;;;;;;;;;;;;;;39.48;31.08;102380.31;5092501;28;19928;-41
2022/08/11 10:17:20;;;;;;;;;;;;;;;39.60;30.31;102377.41;5092521;28;19920;-43
2022/08/11 10:19:49;;;;;;;;;;;;;;;39.39;29.21;102386.81;5091514;28;19921;-43
2022/08/11 10:28:13;;;;;;;;;;;;;;;39.45;29.36;102372.47;5067747;28;19920;-38
2022/08/11 10:34:03;;;;;;;;;;;;;;;39.72;27.68;102360.38;5091558;28;20019;-42
2022/08/11 10:36:31;;;;;;;;;;;;;;;39.64;28.45;102371.44;5089671;28;19924;-43
2022/08/11 10:39:00;;;;;;;;;;;;;;;39.67;27.87;102370.53;5081163;28;19928;-42
2022/08/11 10:44:37;;;;;;;;;;;;;;;39.55;26.83;102363.41;5090614;28;19924;-41
2022/08/11 10:51:11;;;;;;;;;;;;;;;39.80;27.21;102359.66;5089361;28;19920;-43
2022/08/11 11:01:04;;;;;;;;;;;;;;;39.48;25.55;102351.91;5093991;28;20381;-41
2022/08/11 11:03:34;;;;;;;;;;;;;;;39.43;27.11;102348.72;5093007;28;20036;-43
2022/08/11 11:06:06;;;;;;;;;;;;;;;39.44;27.66;102342.44;5095038;28;20337;-43
2022/08/11 11:08:56;;;;;;;;;;;;;;;39.61;26.57;102343.16;5094344;28;20281;-36
2022/08/11 11:20:03;;;;;;;;;;;;;;;38.95;25.74;102341.81;5095206;28;19930;-38
2022/08/11 11:22:40;;;;;;;;;;;;;;;38.99;26.82;102344.59;5094309;28;19931;-38
2022/08/11 11:25:15;;;;;;;;;;;;;;;39.11;25.26;102327.16;5094978;28;19927;-43
2022/08/11 11:27:51;;;;;;;;;;;;;;;38.93;24.49;102335.59;5094231;28;19978;-41
2022/08/11 11:30:19;;;;;;;;;;;;;;;38.65;26.03;102327.66;5093898;28;19920;-42
2022/08/11 11:32:55;;;;;;;;;;;;;;;38.56;26.11;102332.06;5093514;28;20304;-41
2022/08/11 11:35:30;;;;;;;;;;;;;;;38.52;24.88;102331.31;5094637;28;20380;-42
2022/08/11 11:37:58;;;;;;;;;;;;;;;38.53;26.37;102335.88;5092784;28;19924;-43
2022/08/11 11:40:32;;;;;;;;;;;;;;;38.47;26.91;102339.78;5093951;28;19920;-41
2022/08/11 11:43:01;;;;;;;;;;;;;;;38.27;25.39;102325.31;5093458;28;19924;-41
2022/08/11 11:45:28;;;;;;;;;;;;;;;38.22;27.61;102325.88;5092556;28;19924;-39
2022/08/11 11:47:58;;;;;;;;;;;;;;;38.36;27.16;102319.69;5092968;28;19934;-42
2022/08/11 11:50:30;;;;;;;;;;;;;;;38.45;26.95;102325.66;5093664;28;19930;-36
2022/08/11 11:53:00;;;;;;;;;;;;;;;38.45;27.18;102325.66;5093380;28;19965;-41
2022/08/11 11:55:28;;;;;;;;;;;;;;;38.40;27.10;102332.03;5094095;28;19971;-42
2022/08/11 12:03:32;;;;;;;;;;;;;;;38.32;28.90;102327.69;5091496;28;20075;-40
2022/08/11 12:06:02;;;;;;;;;;;;;;;38.38;29.10;102320.00;5093490;28;19934;-41
2022/08/11 12:08:30;;;;;;;;;;;;;;;38.44;28.72;102323.19;5093294;28;20373;-33
2022/08/11 12:13:41;;;;;;;;;;;;;;;38.54;29.79;102317.09;5093226;28;20293;-40
2022/08/11 12:16:09;;;;;;;;;;;;;;;38.57;29.55;102318.31;5093433;28;19947;-40
2022/08/11 12:18:58;;;;;;;;;;;;;;;38.50;28.51;102313.44;5092947;28;19924;-40
2022/08/11 12:21:28;;;;;;;;;;;;;;;38.47;28.96;102308.53;5093680;28;19931;-42
2022/08/11 12:29:45;;;;;;;;;;;;;;;38.37;29.62;102311.75;5092962;28;19928;-29
2022/08/11 12:32:21;;;;;;;;;;;;;;;38.16;29.91;102307.31;5093103;28;19923;-30
2022/08/11 12:34:49;;;;;;;;;;;;;;;38.09;28.26;102307.44;5092911;28;19924;-32
2022/08/11 12:37:22;;;;;;;;;;;;;;;38.04;29.20;102299.25;5093155;28;20262;-33
2022/08/11 12:45:52;;;;;;;;;;;;;;;37.81;29.14;102292.31;5089244;28;19928;-31
2022/08/11 12:54:40;;;;;;;;;;;;;;;37.64;29.94;102289.81;5092998;28;19920;-37
2022/08/11 13:05:35;;;;;;;;;;;;;;;37.23;29.27;102273.72;5093424;28;20308;-39
2022/08/11 13:08:12;;;;;;;;;;;;;;;37.07;29.68;102280.28;5093129;28;20381;-41
2022/08/11 13:13:27;;;;;;;;;;;;;;;36.64;30.68;102274.50;5073901;28;19920;-40
2022/08/11 13:16:15;;;;;;;;;;;;;;;36.53;29.68;102271.84;5090778;28;19924;-39
2022/08/11 13:18:44;;;;;;;;;;;;;;;36.37;30.57;102274.66;5093616;28;19931;-37
2022/08/11 13:21:12;;;;;;;;;;;;;;;36.23;29.98;102266.97;5091913;28;19935;-36
2022/08/11 13:23:48;;;;;;;;;;;;;;;36.10;30.81;102271.78;5073532;28;19928;-40
2022/08/11 13:26:34;;;;;;;;;;;;;;;36.05;30.95;102268.56;5090386;28;19930;-39
2022/08/11 13:29:17;;;;;;;;;;;;;;;35.83;30.63;102266.03;5072756;28;19942;-39
2022/08/11 13:31:45;;;;;;;;;;;;;;;35.72;31.46;102262.47;5091156;28;19919;-40
2022/08/11 13:34:14;;;;;;;;;;;;;;;35.60;32.43;102260.16;5093494;28;19924;-40
2022/08/11 13:36:43;;;;;;;;;;;;;;;35.54;31.88;102265.66;5092232;28;19927;-42
2022/08/11 13:39:10;;;;;;;;;;;;;;;35.46;32.15;102267.00;5092727;28;19927;-40
2022/08/11 13:41:42;;;;;;;;;;;;;;;35.38;31.50;102261.75;5092151;28;19928;-40
2022/08/11 13:44:11;;;;;;;;;;;;;;;35.26;32.02;102256.50;5092050;28;19923;-39
2022/08/11 13:46:46;;;;;;;;;;;;;;;35.13;32.85;102251.31;5092976;28;20379;-36
2022/08/11 13:49:15;;;;;;;;;;;;;;;35.06;33.64;102253.47;5092906;28;20368;-40
2022/08/11 13:51:44;;;;;;;;;;;;;;;34.94;33.12;102252.00;5092718;28;20396;-40
2022/08/11 13:54:16;;;;;;;;;;;;;;;34.87;33.73;102249.16;5092805;28;19927;-41
2022/08/11 13:56:46;;;;;;;;;;;;;;;34.88;34.23;102259.53;5092141;28;19932;-41
2022/08/11 13:59:15;;;;;;;;;;;;;;;34.76;34.41;102257.16;5093125;28;19920;-41
2022/08/11 14:01:46;;;;;;;;;;;;;;;34.63;34.59;102253.16;5092591;28;19927;-38
2022/08/11 14:04:36;;;;;;;;;;;;;;;34.62;34.68;102252.34;5090830;28;19932;-41
2022/08/11 14:07:06;;;;;;;;;;;;;;;34.67;34.59;102248.16;5091119;28;19930;-41
2022/08/11 14:09:36;;;;;;;;;;;;;;;34.73;34.25;102231.94;5091617;28;19935;-43
2022/08/11 14:14:57;;;;;;;;;;;;;;;34.85;34.08;102237.19;5091569;28;19923;-42
2022/08/11 14:17:25;;;;;;;;;;;;;;;34.78;33.80;102232.28;5090519;28;19927;-43
2022/08/11 14:20:13;;;;;;;;;;;;;;;34.74;33.57;102227.78;5091783;28;19931;-40
2022/08/11 14:23:00;;;;;;;;;;;;;;;34.54;33.17;102222.63;5091111;28;19920;-42
2022/08/11 14:25:30;;;;;;;;;;;;;;;34.30;34.39;102223.72;5090555;28;19994;-42
2022/08/11 14:28:19;;;;;;;;;;;;;;;34.04;35.52;102222.31;5091073;28;19943;-41
2022/08/11 14:31:05;;;;;;;;;;;;;;;33.93;35.11;102212.09;5071423;28;20013;-45
2022/08/11 14:33:32;;;;;;;;;;;;;;;33.89;36.09;102209.22;5085775;28;19931;-41
2022/08/11 14:36:21;;;;;;;;;;;;;;;33.87;36.16;102209.66;5071396;28;19931;-43
2022/08/11 14:38:49;;;;;;;;;;;;;;;33.86;36.73;102202.22;5086793;28;19924;-41
2022/08/11 14:47:06;;;;;;;;;;;;;;;33.33;37.51;102210.50;5070286;28;20405;-41
2022/08/11 14:49:53;;;;;;;;;;;;;;;33.26;38.91;102210.53;5091009;28;20023;-38
2022/08/11 14:52:43;;;;;;;;;;;;;;;33.22;38.19;102210.50;5090290;28;19927;-42
2022/08/11 14:57:56;;;;;;;;;;;;;;;33.14;38.82;102203.16;5091261;28;20356;-42
2022/08/11 15:00:26;;;;;;;;;;;;;;;33.22;39.31;102201.84;5090108;28;20020;-43
2022/08/11 15:03:09;;;;;;;;;;;;;;;33.31;37.90;102204.31;5090781;28;19951;-43
2022/08/11 15:05:39;;;;;;;;;;;;;;;33.24;38.42;102207.19;5088882;28;20010;-42
2022/08/11 15:08:08;;;;;;;;;;;;;;;33.15;38.65;102199.84;5090201;28;19920;-43
2022/08/11 15:10:36;;;;;;;;;;;;;;;33.10;38.77;102199.44;5087554;28;19924;-38
2022/08/11 15:13:03;;;;;;;;;;;;;;;33.07;39.05;102192.44;5091164;28;19920;-43
2022/08/11 15:18:19;;;;;;;;;;;;;;;32.96;38.40;102182.19;5090600;28;19934;-41
2022/08/11 15:37:24;;;;;;;;;;;;;;;32.66;38.86;102176.94;5087812;28;20281;-42
2022/08/11 15:37:43;;;;;;;;;;;;;;;32.48;38.50;102177.84;5057023;28;20384;-42
2022/08/11 15:46:01;;;;;;;;;;;;;;;31.87;38.25;102170.53;5094053;28;19920;-43
2022/08/11 15:48:37;;;;;;;;;;;;;;;31.71;39.68;102158.63;5094147;28;19955;-39
2022/08/11 15:51:08;;;;;;;;;;;;;;;31.63;40.09;102172.19;5093469;28;19924;-40
2022/08/11 15:53:39;;;;;;;;;;;;;;;31.63;39.72;102165.59;5093717;28;20373;-40
2022/08/11 15:56:08;;;;;;;;;;;;;;;31.56;39.24;102163.53;5093474;28;19966;-42
2022/08/11 16:04:32;;;;;;;;;;;;;;;31.11;40.87;102157.31;5093044;28;20358;-42
2022/08/11 16:07:01;;;;;;;;;;;;;;;30.93;41.72;102158.50;5093675;28;20359;-37
2022/08/11 16:09:32;;;;;;;;;;;;;;;30.76;42.00;102162.97;5093955;28;20340;-42
2022/08/11 16:12:15;;;;;;;;;;;;;;;30.67;42.24;102153.88;5091793;28;19927;-38
2022/08/11 16:17:32;;;;;;;;;;;;;;;30.41;43.82;102161.56;5092169;28;19927;-40
2022/08/11 16:20:02;;;;;;;;;;;;;;;30.32;44.05;102152.47;5093727;28;19939;-42
2022/08/11 16:22:36;;;;;;;;;;;;;;;30.23;44.40;102142.53;5093595;28;20339;-35
2022/08/11 16:25:04;;;;;;;;;;;;;;;30.13;44.68;102147.03;5092990;28;20297;-40
2022/08/11 16:27:54;;;;;;;;;;;;;;;30.01;45.77;102145.31;5091369;28;19928;-44
2022/08/11 16:30:23;;;;;;;;;;;;;;;30.02;46.36;102140.38;5093377;28;19924;-36
2022/08/11 16:32:51;;;;;;;;;;;;;;;30.02;46.25;102146.97;5092292;28;20408;-41
2022/08/11 16:41:00;;;;;;;;;;;;;;;29.85;46.34;102135.31;5093789;28;19927;-42
2022/08/11 16:49:00;;;;;;;;;;;;;;;29.58;47.16;102132.63;5091938;28;19946;-36
2022/08/11 16:51:29;;;;;;;;;;;;;;;29.43;47.06;102130.88;5093724;28;19927;-38
2022/08/11 16:53:56;;;;;;;;;;;;;;;29.34;46.65;102133.25;5091216;28;19920;-36
2022/08/11 16:56:34;;;;;;;;;;;;;;;29.28;47.05;102134.84;5092921;28;19927;-41
2022/08/11 16:59:13;;;;;;;;;;;;;;;29.24;47.25;102133.97;5092185;28;19933;-44
2022/08/11 17:01:44;;;;;;;;;;;;;;;29.18;47.29;102129.84;5093991;28;19920;-44
2022/08/11 17:13:22;;;;;;;;;;;;;;;28.89;49.64;102114.34;5092404;28;19920;-37
2022/08/11 17:16:10;;;;;;;;;;;;;;;28.81;49.65;102119.16;5094291;28;19920;-40
2022/08/11 17:18:50;;;;;;;;;;;;;;;28.72;50.13;102116.59;5093454;28;19967;-39
2022/08/11 17:21:19;;;;;;;;;;;;;;;28.67;50.54;102119.81;5093150;28;19924;-44
2022/08/11 17:23:49;;;;;;;;;;;;;;;28.60;50.87;102116.03;5093423;28;20369;-41
2022/08/11 17:26:19;;;;;;;;;;;;;;;28.55;51.35;102122.97;5093415;28;19920;-40
2022/08/11 17:28:50;;;;;;;;;;;;;;;28.53;51.35;102110.22;5092387;28;19920;-42
2022/08/11 17:36:53;;;;;;;;;;;;;;;28.38;53.15;102112.91;5093164;28;19934;-41
2022/08/11 17:39:23;;;;;;;;;;;;;;;28.34;52.92;102109.19;5090643;28;20369;-38
2022/08/11 17:50:10;;;;;;;;;;;;;;;28.01;55.25;102106.22;5090901;28;19927;-40
2022/08/11 18:01:06;;;;;;;;;;;;;;;27.62;57.35;102106.47;5091816;28;20015;-40
2022/08/11 18:03:38;;;;;;;;;;;;;;;27.49;58.22;102104.19;5091235;28;19924;-41
2022/08/11 18:06:07;;;;;;;;;;;;;;;27.38;58.77;102098.28;5091075;28;20022;-36
